Bookmark and Share
Track history (hours):
 

Yvonne K.

Last reported at 2014-Apr-24 09:33 UTC. Time now 2014-Apr-24 09:41 UTC.
Position N 46°30' W 001°48'.

Length 90 m; draft 3.4 m.

Type: Cargo ship. MMSI: 244948000.

NotesDate/timePositionNaut miles runAvg speedWind from/ knotsBaromVisibWave heightAir tempDewpointWater temp
2014-Apr-24 09:33N 46°30' W 001°48'0 0.0
2014-Apr-24 08:33N 46°30' W 001°48'0 0.0
2014-Apr-24 07:33N 46°30' W 001°48'0 0.0
2014-Apr-24 06:33N 46°30' W 001°48'0 0.0
2014-Apr-24 05:33N 46°30' W 001°48'0 0.0
2014-Apr-24 04:33N 46°30' W 001°48'0 0.0
2014-Apr-24 03:33N 46°30' W 001°48'0 0.0
2014-Apr-24 02:33N 46°30' W 001°48'0 0.0
2014-Apr-24 01:33N 46°30' W 001°48'0 0.0
2014-Apr-24 00:33N 46°30' W 001°48'0 0.0
2014-Apr-23 23:33N 46°30' W 001°48'0 0.0
2014-Apr-23 22:33N 46°30' W 001°47'0 0.0
2014-Apr-23 21:33N 46°30' W 001°48'0 0.0
2014-Apr-23 20:33N 46°30' W 001°48'0 0.0
2014-Apr-23 19:33N 46°30' W 001°48'0 0.0
2014-Apr-23 18:33N 46°30' W 001°47'0 0.0
2014-Apr-23 17:33N 46°30' W 001°48'0 0.0
2014-Apr-23 16:33N 46°30' W 001°48'0 0.0
2014-Apr-23 15:33N 46°30' W 001°48'0 0.0
2014-Apr-23 14:33N 46°30' W 001°47'0 0.0
2014-Apr-23 13:33N 46°30' W 001°48'0 0.0
2014-Apr-23 12:33N 46°30' W 001°48'0 0.0
2014-Apr-23 11:33N 46°30' W 001°48'0 0.0
2014-Apr-23 10:33N 46°30' W 001°48'0 0.0
2014-Apr-23 09:33N 46°30' W 001°48'0 0.0
2014-Apr-23 08:33N 46°30' W 001°48'0 0.0
2014-Apr-23 07:33N 46°30' W 001°48'0 0.0
2014-Apr-23 06:33N 46°30' W 001°48'0 0.0
2014-Apr-23 05:33N 46°30' W 001°48'0 0.0
2014-Apr-23 04:33N 46°30' W 001°48'0 0.0
2014-Apr-23 03:33N 46°30' W 001°48'0 0.0
2014-Apr-23 02:33N 46°30' W 001°48'0 0.0
2014-Apr-23 01:33N 46°30' W 001°48'0 0.0
2014-Apr-23 00:33N 46°30' W 001°48'0 0.0
2014-Apr-22 23:33N 46°30' W 001°48'0 0.0
2014-Apr-22 22:33N 46°30' W 001°48'0 0.0
2014-Apr-22 21:33N 46°30' W 001°48'0 0.0
2014-Apr-22 20:33N 46°30' W 001°48'0 0.0
2014-Apr-22 19:33N 46°30' W 001°48'0 0.0
2014-Apr-22 18:33N 46°30' W 001°48'0 0.0
2014-Apr-22 17:33N 46°30' W 001°48'0 0.0
2014-Apr-22 16:33N 46°30' W 001°48'0 0.0
2014-Apr-22 15:33N 46°30' W 001°48'0 0.0
2014-Apr-22 14:33N 46°30' W 001°48'0 0.0
2014-Apr-22 13:33N 46°30' W 001°48'0 0.0
2014-Apr-22 12:33N 46°30' W 001°48'0 0.0
2014-Apr-22 11:33N 46°30' W 001°48'0 0.0
2014-Apr-22 10:30N 46°30' W 001°48'0 0.0
2014-Apr-22 09:33N 46°30' W 001°48'0 0.0
2014-Apr-22 08:33N 46°30' W 001°47'0 0.0
2014-Apr-22 07:33N 46°30' W 001°48'0 0.0
2014-Apr-22 06:33N 46°30' W 001°48'0 0.0
2014-Apr-22 05:33N 46°30' W 001°48'0 0.0
2014-Apr-22 04:33N 46°30' W 001°48'0 0.0
2014-Apr-22 03:33N 46°30' W 001°48'0 0.0
2014-Apr-22 02:33N 46°30' W 001°47'0 0.0
2014-Apr-22 01:33N 46°30' W 001°48'0 0.0
2014-Apr-22 00:33N 46°30' W 001°48'0 0.0
2014-Apr-21 23:33N 46°30' W 001°48'0 0.0
2014-Apr-21 22:33N 46°30' W 001°48'0 0.0
2014-Apr-21 21:33N 46°30' W 001°48'0 0.0
2014-Apr-21 20:33N 46°30' W 001°48'0 0.0
2014-Apr-21 19:33N 46°30' W 001°48'0 0.0
2014-Apr-21 18:33N 46°30' W 001°48'0 0.0
2014-Apr-21 17:33N 46°30' W 001°48'0 0.0
2014-Apr-21 16:33N 46°30' W 001°48'0 0.0
2014-Apr-21 15:33N 46°30' W 001°48'0 0.0
2014-Apr-21 14:33N 46°30' W 001°48'0 0.0
2014-Apr-21 13:33N 46°30' W 001°48'0 0.0
2014-Apr-21 12:33N 46°30' W 001°48'0 0.0
2014-Apr-21 11:33N 46°30' W 001°47'0 0.0
2014-Apr-21 10:33N 46°30' W 001°48'0 0.0
2014-Apr-21 09:33N 46°30' W 001°48'3 2.6
2014-Apr-21 08:33N 46°27' W 001°48'2 2.4
2014-Apr-21 07:33N 46°25' W 001°50'4 3.8
2014-Apr-21 06:33N 46°23' W 001°55'7 7.1
2014-Apr-21 05:33N 46°22' W 002°05'8 8.1
2014-Apr-21 04:33N 46°20' W 002°16'  
2014-Apr-18 12:05N 38°08' W 009°40'610.0
2014-Apr-18 11:30N 38°02' W 009°38'1110.1
2014-Apr-18 10:23N 37°51' W 009°35'8 9.8
2014-Apr-18 09:33N 37°43' W 009°33'10 9.7
2014-Apr-18 08:34N 37°34' W 009°30'1410.2
2014-Apr-18 07:13N 37°20' W 009°26'49 8.6
2014-Apr-18 01:34N 36°44' W 008°46'1410.6
2014-Apr-18 00:16N 36°44' W 008°28'810.5
2014-Apr-17 23:30N 36°45' W 008°18'1010.5
2014-Apr-17 22:33N 36°46' W 008°06'1110.6
2014-Apr-17 21:33N 36°46' W 007°53'1110.6
2014-Apr-17 20:33N 36°46' W 007°40'1010.4
2014-Apr-17 19:33N 36°46' W 007°27'1010.4
2014-Apr-17 18:33N 36°46' W 007°14'1110.7
2014-Apr-17 17:33N 36°46' W 007°00'  

Dump ship's entire track history

sailing weather and tide predictions

Yvonne K. — PBLX — position and weather